createdAt,value
2019-01-15T00:00:13.789Z,0
2019-01-15T00:03:19.658Z,0
2019-01-15T00:06:25.702Z,0
2019-01-15T00:09:31.758Z,0
2019-01-15T00:12:40.585Z,0
2019-01-15T00:15:46.462Z,0
2019-01-15T00:18:52.407Z,0
2019-01-15T00:21:58.277Z,0
2019-01-15T00:25:04.373Z,0
2019-01-15T00:28:10.388Z,0
2019-01-15T00:31:16.451Z,0
2019-01-15T00:34:22.409Z,0
2019-01-15T00:37:28.280Z,0
2019-01-15T00:40:34.224Z,0
2019-01-15T00:43:40.187Z,0
2019-01-15T00:46:46.434Z,0
2019-01-15T00:49:52.408Z,0
2019-01-15T00:52:58.371Z,0
2019-01-15T00:56:04.329Z,0
2019-01-15T00:59:10.387Z,0
2019-01-15T01:02:16.333Z,0
2019-01-15T01:05:22.394Z,0
2019-01-15T01:08:33.928Z,0
2019-01-15T01:11:39.837Z,0
2019-01-15T01:14:45.936Z,0
2019-01-15T01:17:51.896Z,0
2019-01-15T01:20:57.752Z,0
2019-01-15T01:24:03.818Z,0
2019-01-15T01:27:09.670Z,0
2019-01-15T01:30:15.627Z,0
2019-01-15T01:33:21.491Z,0
2019-01-15T01:36:27.545Z,0
2019-01-15T01:39:33.506Z,0
2019-01-15T01:42:39.465Z,0
2019-01-15T01:45:45.327Z,0
2019-01-15T01:48:51.266Z,0
2019-01-15T01:51:57.231Z,0
2019-01-15T01:55:03.199Z,0
2019-01-15T01:58:09.352Z,0
2019-01-15T02:01:15.315Z,0
2019-01-15T02:04:21.229Z,0
2019-01-15T02:07:27.341Z,0
2019-01-15T02:10:33.279Z,0
2019-01-15T02:13:39.252Z,0
2019-01-15T02:16:45.307Z,0
2019-01-15T02:19:51.172Z,0
2019-01-15T02:22:57.267Z,0
2019-01-15T02:26:03.174Z,0
2019-01-15T02:29:09.341Z,0
2019-01-15T02:32:15.316Z,0
2019-01-15T02:35:21.385Z,0
2019-01-15T02:38:27.537Z,0
2019-01-15T02:41:33.599Z,0
2019-01-15T02:44:39.470Z,0
2019-01-15T02:47:45.528Z,0
2019-01-15T02:50:51.474Z,0
2019-01-15T02:53:59.491Z,0
2019-01-15T02:57:05.364Z,0
2019-01-15T03:00:11.316Z,0
2019-01-15T03:03:17.243Z,0
2019-01-15T03:06:23.225Z,0
2019-01-15T03:09:29.265Z,0
2019-01-15T03:12:35.145Z,0
2019-01-15T03:15:41.204Z,0
2019-01-15T03:18:48.988Z,0
2019-01-15T03:21:55.015Z,0
2019-01-15T03:25:01.038Z,0
2019-01-15T03:28:06.898Z,0
2019-01-15T03:31:12.840Z,0
2019-01-15T03:34:18.800Z,0
2019-01-15T03:37:24.748Z,0
2019-01-15T03:40:30.822Z,0
2019-01-15T03:43:36.708Z,0
2019-01-15T03:46:42.846Z,0
2019-01-15T03:49:48.809Z,0
2019-01-15T03:52:54.871Z,0
2019-01-15T03:56:00.806Z,0.7
2019-01-15T03:59:06.784Z,183.6
2019-01-15T04:02:12.843Z,229
2019-01-15T04:05:18.804Z,237.6
2019-01-15T04:08:24.763Z,240.5
2019-01-15T04:11:30.636Z,240.5
2019-01-15T04:14:36.576Z,241.9
2019-01-15T04:17:42.642Z,241.9
2019-01-15T04:20:48.581Z,240.5
2019-01-15T04:23:54.557Z,240.5
2019-01-15T04:27:00.725Z,241.9
2019-01-15T04:30:06.664Z,244.8
2019-01-15T04:33:15.402Z,244.8
2019-01-15T04:36:21.275Z,244.8
2019-01-15T04:39:27.306Z,244.8
2019-01-15T04:42:33.390Z,243.4
2019-01-15T04:45:39.298Z,244.8
2019-01-15T04:48:48.053Z,244.8
2019-01-15T04:51:54.033Z,244.8
2019-01-15T04:55:00.040Z,244.8
2019-01-15T04:58:05.983Z,243.4
2019-01-15T05:01:12.014Z,243.4
2019-01-15T05:04:17.885Z,243.4
2019-01-15T05:07:23.938Z,243.4
2019-01-15T05:10:29.994Z,243.4
2019-01-15T05:13:35.959Z,243.4
2019-01-15T05:16:41.920Z,241.9
2019-01-15T05:19:47.879Z,241.9
2019-01-15T05:22:54.044Z,241.9
2019-01-15T05:26:00.102Z,243.4
2019-01-15T05:29:06.066Z,246.2
2019-01-15T05:32:11.980Z,244.8
2019-01-15T05:35:18.090Z,244.8
2019-01-15T05:38:24.145Z,244.8
2019-01-15T05:41:30.219Z,244.8
2019-01-15T05:44:36.164Z,243.4
2019-01-15T05:47:42.074Z,247.7
2019-01-15T05:50:47.983Z,265
2019-01-15T05:53:54.083Z,265
2019-01-15T05:56:59.947Z,265
2019-01-15T06:00:05.958Z,262.1
2019-01-15T06:03:11.918Z,260.6
2019-01-15T06:06:17.879Z,269.3
2019-01-15T06:09:23.748Z,266.4
2019-01-15T06:12:29.703Z,265
2019-01-15T06:15:35.568Z,266.4
2019-01-15T06:18:42.614Z,239
2019-01-15T06:21:51.305Z,263.5
2019-01-15T06:24:57.399Z,262.1
2019-01-15T06:28:03.297Z,262.1
2019-01-15T06:31:09.426Z,262.1
2019-01-15T06:34:15.615Z,263.5
2019-01-15T06:37:21.670Z,262.1
2019-01-15T06:40:27.545Z,260.6
2019-01-15T06:43:33.897Z,262.1
2019-01-15T06:46:39.773Z,262.1
2019-01-15T06:49:45.814Z,259.2
2019-01-15T06:52:51.684Z,262.1
2019-01-15T06:55:57.735Z,263.5
2019-01-15T06:59:03.774Z,260.6
2019-01-15T07:02:09.760Z,263.5
2019-01-15T07:05:17.204Z,263.5
2019-01-15T07:08:23.271Z,266.4
2019-01-15T07:11:29.279Z,270.7
2019-01-15T07:14:35.588Z,269.3
2019-01-15T07:17:41.640Z,272.2
2019-01-15T07:20:47.993Z,273.6
2019-01-15T07:23:53.852Z,272.2
2019-01-15T07:27:02.555Z,272.2
2019-01-15T07:30:08.481Z,270.7
2019-01-15T07:33:14.575Z,269.3
2019-01-15T07:36:20.958Z,277.9
2019-01-15T07:39:26.835Z,276.5
2019-01-15T07:42:32.862Z,280.8
2019-01-15T07:45:38.843Z,277.9
2019-01-15T07:48:45.805Z,279.4
2019-01-15T07:51:52.692Z,229
2019-01-15T07:54:58.833Z,277.9
2019-01-15T07:58:04.763Z,276.5
2019-01-15T08:01:12.023Z,275
2019-01-15T08:04:17.968Z,275
2019-01-15T08:07:24.206Z,275
2019-01-15T08:10:30.270Z,273.6
2019-01-15T08:13:36.349Z,273.6
2019-01-15T08:16:42.219Z,273.6
2019-01-15T08:19:48.165Z,273.6
2019-01-15T08:22:54.107Z,269.3
2019-01-15T08:26:00.291Z,273.6
2019-01-15T08:29:06.462Z,273.6
2019-01-15T08:32:12.722Z,272.2
2019-01-15T08:35:19.037Z,273.6
2019-01-15T08:38:24.909Z,273.6
2019-01-15T08:41:31.289Z,272.2
2019-01-15T08:44:37.169Z,272.2
2019-01-15T08:47:43.148Z,272.2
2019-01-15T08:50:49.301Z,272.2
2019-01-15T08:53:55.259Z,272.2
2019-01-15T08:57:01.238Z,272.2
2019-01-15T09:00:07.185Z,270.7
2019-01-15T09:03:13.414Z,272.2
2019-01-15T09:06:20.422Z,272.2
2019-01-15T09:09:26.694Z,272.2
2019-01-15T09:12:33.756Z,272.2
2019-01-15T09:15:39.754Z,273.6
2019-01-15T09:18:45.979Z,273.6
2019-01-15T09:21:53.092Z,273.6
2019-01-15T09:24:59.145Z,275
2019-01-15T09:28:05.213Z,276.5
2019-01-15T09:31:11.483Z,276.5
2019-01-15T09:34:17.362Z,276.5
2019-01-15T09:37:23.404Z,276.5
2019-01-15T09:40:29.380Z,229
2019-01-15T09:43:35.422Z,279.4
2019-01-15T09:46:41.374Z,249.1
2019-01-15T09:49:47.432Z,282.2
2019-01-15T09:52:53.290Z,282.2
2019-01-15T09:55:59.463Z,283.7
2019-01-15T09:59:06.937Z,282.2
2019-01-15T10:02:12.932Z,282.2
2019-01-15T10:05:18.878Z,280.8
2019-01-15T10:08:24.914Z,282.2
2019-01-15T10:11:30.885Z,282.2
2019-01-15T10:14:44.124Z,285.1
2019-01-15T10:17:50.092Z,285.1
2019-01-15T10:20:56.146Z,285.1
2019-01-15T10:24:02.213Z,286.6
2019-01-15T10:27:08.278Z,285.1
2019-01-15T10:30:14.343Z,283.7
2019-01-15T10:33:20.306Z,285.1
2019-01-15T10:36:26.342Z,282.2
2019-01-15T10:39:32.422Z,279.4
2019-01-15T10:42:38.531Z,277.9
2019-01-15T10:45:45.886Z,276.5
2019-01-15T10:48:51.757Z,277.9
2019-01-15T10:51:58.103Z,280.8
2019-01-15T10:55:04.061Z,250.6
2019-01-15T10:58:17.306Z,282.2
2019-01-15T11:01:23.664Z,282.2
2019-01-15T11:04:29.611Z,282.2
2019-01-15T11:07:35.606Z,282.2
2019-01-15T11:10:42.771Z,282.2
2019-01-15T11:13:48.822Z,282.2
2019-01-15T11:16:54.835Z,272.2
2019-01-15T11:20:00.920Z,282.2
2019-01-15T11:23:06.990Z,282.2
2019-01-15T11:26:12.875Z,282.2
2019-01-15T11:29:18.939Z,230.4
2019-01-15T11:32:24.901Z,282.2
2019-01-15T11:35:31.165Z,282.2
2019-01-15T11:38:40.060Z,282.2
2019-01-15T11:41:46.331Z,282.2
2019-01-15T11:44:52.342Z,277.9
2019-01-15T11:47:58.221Z,273.6
2019-01-15T11:51:04.723Z,276.5
2019-01-15T11:54:10.816Z,277.9
2019-01-15T11:57:16.779Z,266.4
2019-01-15T12:00:22.844Z,279.4
2019-01-15T12:03:28.774Z,279.4
2019-01-15T12:06:34.873Z,280.8
2019-01-15T12:09:40.996Z,282.2
2019-01-15T12:12:47.430Z,280.8
2019-01-15T12:15:54.989Z,282.2
2019-01-15T12:19:01.136Z,280.8
2019-01-15T12:22:07.219Z,280.8
2019-01-15T12:25:14.274Z,280.8
2019-01-15T12:28:20.573Z,280.8
2019-01-15T12:31:26.644Z,280.8
2019-01-15T12:34:32.907Z,280.8
2019-01-15T12:37:38.919Z,279.4
2019-01-15T12:40:46.234Z,279.4
2019-01-15T12:43:54.260Z,275
2019-01-15T12:47:00.211Z,276.5
2019-01-15T12:50:06.180Z,276.5
2019-01-15T12:53:12.238Z,276.5
2019-01-15T12:56:18.155Z,276.5
2019-01-15T12:59:24.097Z,276.5
2019-01-15T13:02:30.188Z,276.5
2019-01-15T13:05:36.279Z,276.5
2019-01-15T13:08:42.488Z,275
2019-01-15T13:11:48.362Z,276.5
2019-01-15T13:14:54.364Z,273.6
2019-01-15T13:18:00.334Z,275
2019-01-15T13:21:06.431Z,267.8
2019-01-15T13:24:12.338Z,269.3
2019-01-15T13:27:18.424Z,256.3
2019-01-15T13:30:24.316Z,262.1
2019-01-15T13:33:37.500Z,254.9
2019-01-15T13:36:43.972Z,265
2019-01-15T13:39:53.641Z,276.5
2019-01-15T13:42:59.647Z,275
2019-01-15T13:46:05.756Z,276.5
2019-01-15T13:49:11.880Z,270.7
2019-01-15T13:52:19.280Z,273.6
2019-01-15T13:55:25.373Z,273.6
2019-01-15T13:58:32.958Z,272.2
2019-01-15T14:01:38.910Z,273.6
2019-01-15T14:04:45.169Z,272.2
2019-01-15T14:07:51.134Z,272.2
2019-01-15T14:10:57.193Z,272.2
2019-01-15T14:14:03.357Z,272.2
2019-01-15T14:17:09.320Z,272.2
2019-01-15T14:20:15.301Z,270.7
2019-01-15T14:23:22.007Z,269.3
2019-01-15T14:26:28.022Z,269.3
2019-01-15T14:29:35.230Z,267.8
2019-01-15T14:32:41.377Z,269.3
2019-01-15T14:35:47.443Z,267.8
2019-01-15T14:38:53.800Z,266.4
2019-01-15T14:41:59.686Z,266.4
2019-01-15T14:45:06.336Z,267.8
2019-01-15T14:48:12.480Z,266.4
2019-01-15T14:51:18.538Z,266.4
2019-01-15T14:54:26.142Z,266.4
2019-01-15T14:57:32.239Z,266.4
2019-01-15T15:00:38.175Z,265
2019-01-15T15:03:44.403Z,159.1
2019-01-15T15:06:50.405Z,254.9
2019-01-15T15:09:56.374Z,265
2019-01-15T15:13:02.251Z,263.5
2019-01-15T15:16:08.283Z,263.5
2019-01-15T15:19:14.245Z,263.5
2019-01-15T15:22:20.200Z,260.6
2019-01-15T15:25:27.844Z,260.6
2019-01-15T15:28:33.885Z,259.2
2019-01-15T15:31:42.803Z,260.6
2019-01-15T15:34:48.851Z,259.2
2019-01-15T15:37:54.999Z,259.2
2019-01-15T15:41:00.928Z,259.2
2019-01-15T15:44:07.042Z,259.2
2019-01-15T15:47:15.479Z,259.2
2019-01-15T15:50:21.393Z,259.2
2019-01-15T15:53:28.621Z,259.2
2019-01-15T15:56:34.697Z,259.2
2019-01-15T15:59:40.684Z,259.2
2019-01-15T16:02:46.565Z,260.6
2019-01-15T16:05:52.575Z,260.6
2019-01-15T16:08:58.487Z,259.2
2019-01-15T16:12:04.475Z,259.2
2019-01-15T16:15:10.531Z,259.2
2019-01-15T16:18:16.442Z,260.6
2019-01-15T16:21:22.451Z,259.2
2019-01-15T16:24:28.509Z,262.1
2019-01-15T16:27:34.470Z,263.5
2019-01-15T16:30:40.531Z,263.5
2019-01-15T16:33:47.617Z,263.5
2019-01-15T16:36:53.677Z,263.5
2019-01-15T16:39:59.638Z,263.5
2019-01-15T16:43:05.599Z,263.5
2019-01-15T16:46:11.558Z,263.5
2019-01-15T16:49:17.515Z,263.5
2019-01-15T16:52:23.483Z,265
2019-01-15T16:55:29.513Z,265
2019-01-15T16:58:35.499Z,263.5
2019-01-15T17:01:41.559Z,265
2019-01-15T17:04:47.646Z,265
2019-01-15T17:07:53.523Z,265
2019-01-15T17:10:59.543Z,265
2019-01-15T17:14:05.496Z,266.4
2019-01-15T17:17:11.423Z,265
2019-01-15T17:20:17.412Z,266.4
2019-01-15T17:23:23.543Z,266.4
2019-01-15T17:26:29.536Z,266.4
2019-01-15T17:29:35.410Z,266.4
2019-01-15T17:32:41.352Z,266.4
2019-01-15T17:35:47.416Z,265
2019-01-15T17:38:53.288Z,266.4
2019-01-15T17:41:59.333Z,267.8
2019-01-15T17:45:05.205Z,266.4
2019-01-15T17:48:11.262Z,267.8
2019-01-15T17:51:17.187Z,267.8
2019-01-15T17:54:23.072Z,267.8
2019-01-15T17:57:29.132Z,267.8
2019-01-15T18:00:35.071Z,266.4
2019-01-15T18:03:41.157Z,266.4
2019-01-15T18:06:47.025Z,267.8
2019-01-15T18:09:52.972Z,267.8
2019-01-15T18:12:58.842Z,267.8
2019-01-15T18:16:04.910Z,267.8
2019-01-15T18:19:10.848Z,265
2019-01-15T18:22:16.777Z,263.5
2019-01-15T18:25:22.767Z,265
2019-01-15T18:28:28.639Z,265
2019-01-15T18:31:37.485Z,266.4
2019-01-15T18:34:43.410Z,265
2019-01-15T18:37:49.658Z,265
2019-01-15T18:40:55.545Z,265
2019-01-15T18:44:01.494Z,266.4
2019-01-15T18:47:07.554Z,266.4
2019-01-15T18:50:13.620Z,266.4
2019-01-15T18:53:19.577Z,266.4
2019-01-15T18:56:25.602Z,263.5
2019-01-15T18:59:31.664Z,265
2019-01-15T19:02:37.667Z,265
2019-01-15T19:05:43.537Z,266.4
2019-01-15T19:08:49.539Z,265
2019-01-15T19:11:58.434Z,266.4
2019-01-15T19:15:04.474Z,266.4
2019-01-15T19:18:10.349Z,266.4
2019-01-15T19:21:16.290Z,266.4
2019-01-15T19:24:22.351Z,266.4
2019-01-15T19:27:28.227Z,266.4
2019-01-15T19:30:34.291Z,266.4
2019-01-15T19:33:40.185Z,266.4
2019-01-15T19:36:46.187Z,266.4
2019-01-15T19:39:52.106Z,266.4
2019-01-15T19:42:57.982Z,266.4
2019-01-15T19:46:03.966Z,266.4
2019-01-15T19:49:09.873Z,266.4
2019-01-15T19:52:15.784Z,267.8
2019-01-15T19:55:21.742Z,266.4
2019-01-15T19:58:27.709Z,266.4
2019-01-15T20:01:33.660Z,265
2019-01-15T20:04:39.544Z,266.4
2019-01-15T20:07:45.582Z,266.4
2019-01-15T20:10:51.559Z,266.4
2019-01-15T20:13:57.501Z,0
2019-01-15T20:17:03.541Z,0
2019-01-15T20:20:09.521Z,0
2019-01-15T20:23:15.394Z,0
2019-01-15T20:26:21.447Z,0
2019-01-15T20:29:27.382Z,0
2019-01-15T20:32:33.361Z,0
2019-01-15T20:35:39.328Z,0
2019-01-15T20:38:45.200Z,0
2019-01-15T20:41:51.237Z,0
2019-01-15T20:44:57.298Z,0
2019-01-15T20:48:03.172Z,0
2019-01-15T20:51:09.114Z,0
2019-01-15T20:54:14.986Z,0
2019-01-15T20:57:20.932Z,0
2019-01-15T21:00:26.803Z,0
2019-01-15T21:03:32.852Z,0
2019-01-15T21:06:38.724Z,0
2019-01-15T21:09:47.649Z,0
2019-01-15T21:12:53.472Z,0
2019-01-15T21:15:59.455Z,0
2019-01-15T21:19:05.414Z,0
2019-01-15T21:22:11.285Z,0
2019-01-15T21:25:17.333Z,0
2019-01-15T21:28:23.200Z,0
2019-01-15T21:31:29.162Z,0
2019-01-15T21:34:33.383Z,0
2019-01-15T21:37:39.329Z,0
2019-01-15T21:40:47.861Z,0
2019-01-15T21:43:53.732Z,0
2019-01-15T21:46:59.769Z,0
2019-01-15T21:50:05.640Z,0
2019-01-15T21:53:11.584Z,0
2019-01-15T21:56:17.456Z,0
2019-01-15T21:59:23.504Z,0
2019-01-15T22:02:29.375Z,0
2019-01-15T22:05:36.840Z,0
2019-01-15T22:08:42.709Z,0
2019-01-15T22:11:48.810Z,0
2019-01-15T22:14:54.683Z,0
2019-01-15T22:18:00.702Z,0
2019-01-15T22:21:06.653Z,0
2019-01-15T22:24:12.523Z,0
2019-01-15T22:27:18.573Z,0
2019-01-15T22:30:24.443Z,0
2019-01-15T22:33:30.400Z,0
2019-01-15T22:36:36.351Z,0
2019-01-15T22:39:42.312Z,0
2019-01-15T22:42:48.269Z,0
2019-01-15T22:45:54.228Z,0
2019-01-15T22:49:00.203Z,0
2019-01-15T22:52:06.373Z,0
2019-01-15T22:55:12.435Z,0
2019-01-15T22:58:20.523Z,0
2019-01-15T23:01:26.484Z,0
2019-01-15T23:04:32.360Z,0
2019-01-15T23:07:38.306Z,0
2019-01-15T23:10:44.259Z,0
2019-01-15T23:13:50.223Z,0
2019-01-15T23:16:56.179Z,0
2019-01-15T23:20:02.246Z,0
2019-01-15T23:23:08.204Z,0
2019-01-15T23:26:14.163Z,0
2019-01-15T23:29:20.226Z,0
2019-01-15T23:32:26.296Z,0
2019-01-15T23:35:32.301Z,0
2019-01-15T23:38:38.166Z,0
2019-01-15T23:41:44.225Z,0
2019-01-15T23:44:50.121Z,0
2019-01-15T23:47:55.992Z,0
2019-01-15T23:51:02.056Z,0
2019-01-15T23:54:08.009Z,0
2019-01-15T23:57:13.967Z,0
